Nearby METAR Reports

 

KCPC - Whiteville, North Carolina, USA
Distance from station: NNE 17mi, 28km
Updated: 06/18/2018 10:55am
Clear
Clear
 Wind from W
Wind: W 6 mph , 9 km/h
Temperature: 88°F , 31°C
Heat Index: 96°F , 36°C
Dew Point: 73°F , 23°C
Humidity: 62%
Barometer: 30.10 inHg , 1019.3 hPa
Clouds: Clear
Visibility: 10 miles , 16 km
2018/06/18 14:55 KCPC 181455Z AUTO 26005KT 10SM CLR 31/23 A3010 RMK AO2 T03050229
KCRE - North Myrtle Bea, South Carolina, USA
Distance from station: SSE 19mi, 31km
Updated: 06/18/2018 10:53am
Few Clouds
Few Clouds
 Wind from SSW
Wind: SSW 10 mph , 17 km/h
Temperature: 84°F , 29°C
Heat Index: 92°F , 33°C
Dew Point: 75°F , 24°C
Humidity: 74%
Barometer: 30.11 inHg , 1019.6 hPa
Clouds: Few Clouds
Visibility: 10 miles , 16 km
Cloud details: Few Clouds 2400 ft
2018/06/18 14:53 KCRE 181453Z 21009KT 10SM FEW024 29/24 A3011 RMK AO1 SLP196 T02890244 55003
 
KHYW - Conway-Horry Cty, South Carolina, USA
Distance from station: SW 22mi, 35km
Updated: 06/18/2018 10:55am
Clear
Clear
 Wind from WSW
Wind: WSW 3 mph , 6 km/h
Temperature: 84°F , 29°C
Heat Index: 92°F , 33°C
Dew Point: 75°F , 24°C
Humidity: 74%
Barometer: 30.11 inHg , 1019.6 hPa
Clouds: Clear
Visibility: 7 miles , 11 km
2018/06/18 14:55 KHYW 181455Z AUTO 25003KT 7SM CLR 29/24 A3011 RMK AO2
KMAO - Marion, South Carolina, USA
Distance from station: WNW 28mi, 45km
Updated: 06/18/2018 10:55am
Haze, Clear
Haze, Clear
 Wind from SW
Wind: SW 5 mph , 7 km/h
Temperature: 82°F , 28°C
Heat Index: 87°F , 31°C
Dew Point: 73°F , 23°C
Humidity: 74%
Barometer: 30.11 inHg , 1019.6 hPa
Summary: Haze
Clouds: Clear
Visibility: 5 miles , 8 km
2018/06/18 14:55 KMAO 181455Z AUTO 23004KT 5SM HZ CLR 28/23 A3011 RMK AO2
 
KMYR - Myrtle Beach, South Carolina, USA
Distance from station: S 28mi, 45km
Updated: 06/18/2018 10:56am
Clear
Clear
 Wind from SSW
Wind: SSW 7 mph , 11 km/h
Temperature: 86°F , 30°C
Heat Index: 93°F , 34°C
Dew Point: 73°F , 23°C
Humidity: 66%
Barometer: 30.13 inHg , 1020.3 hPa
Clouds: Clear
Visibility: 10 miles , 16 km
2018/06/18 14:56 KMYR 181456Z AUTO 21006KT 10SM CLR 30/23 A3013 RMK AO2 SLP201 T03000233 58003
KLBT - Lumberton, North Carolina, USA
Distance from station: NNW 39mi, 62km
Updated: 06/18/2018 10:54am
Clear
Clear
 Wind from W
Wind: W 9 mph , 15 km/h
Temperature: 88°F , 31°C
Heat Index: 96°F , 36°C
Dew Point: 73°F , 23°C
Humidity: 62%
Barometer: 30.09 inHg , 1019 hPa
Clouds: Clear
Visibility: 10 miles , 16 km
2018/06/18 14:54 KLBT 181454Z AUTO 26008KT 10SM CLR 31/23 A3009 RMK AO2 SLP186 T03110233 58002
 
KSUT - Southport, North Carolina, USA
Distance from station: E 46mi, 74km
Updated: 06/18/2018 11:00am
Partly cloudy
Partly cloudy
 Wind from SW
Wind: SW 12 mph , 19 km/h
Temperature: 84°F , 29°C
Heat Index: 92°F , 33°C
Dew Point: 75°F , 24°C
Humidity: 74%
Barometer: 30.12 inHg , 1020 hPa
Clouds: Partly cloudy
Visibility: 10 miles , 16 km
Cloud details: Partly cloudy 1400 ft
2018/06/18 15:00 KSUT 181500Z AUTO 23010KT 10SM SCT014 29/24 A3012 RMK AO2 T02850244
KFLO - Florence, South Carolina, USA
Distance from station: W 50mi, 81km
Updated: 06/18/2018 10:53am
Clear
Clear
 Wind from WSW
Wind: WSW 10 mph , 17 km/h
Temperature: 88°F , 31°C
Heat Index: 96°F , 36°C
Dew Point: 73°F , 23°C
Humidity: 62%
Barometer: 30.11 inHg , 1019.6 hPa
Clouds: Clear
Visibility: 10 miles , 16 km
2018/06/18 14:53 KFLO 181453Z 25009KT 10SM CLR 31/23 A3011 RMK AO2 SLP194 T03110228 56001